KPOB/POB METAR and TAF weather

Enter ICAO airport designator
Station Type Date Time Source
KPOB METAR 2019/11/22 00:56 UTC NOAA

KPOB 220056Z AUTO 00000KT 10SM CLR 08/05 A3020 RMK AO2 SLP231 T00820046 $


Station Type Date Time Source
KPOB Decoded METAR 2019/11/22 00:56 UTC NOAA

Pope Air Force Base, NC, United States (KPOB) 35-10N 079-02W 61M
Nov 21, 2019 - 07:56 PM EST / 2019.11.22 0056 UTC
Wind: Calm:0
Visibility: 10 mile(s):0
Sky conditions: clear
Temperature: 46.8 F (8.2 C)
Dew Point: 40.3 F (4.6 C)
Relative Humidity: 78%
Pressure (altimeter): 30.2 in. Hg (1022 hPa)
ob: KPOB 220056Z AUTO 00000KT 10SM CLR 08/05 A3020 RMK AO2 SLP231 T00820046
cycle: 1

Station Type Date Time Source
KPOB TAF 2019/11/21 18:13 UTC NOAA

TAF KPOB 211800Z 2118/2224 18006KT 9999 FEW150 FEW210 QNH3014INS
BECMG 2205/2206 22006KT 9999 FEW100 SCT150 510103 QNH3004INS
BECMG 2213/2214 23010G15KT 9999 BKN100 510004 QNH3002INS
BECMG 2220/2221 24006KT 9000 -RA BKN090 QNH2995INS TX17/2121Z TN10/2208Z

Example: see airport list